Time;durP1;ratioP1;P1;durP2;ratioP2;P2;SDS_P1;SDS_P2;PMS_P1;PMS_P2;Temp;Humidity;BMP_temperature;BMP_pressure;BME280_temperature;BME280_humidity;BME280_pressure;Samples;Min_cycle;Max_cycle;Signal;HPM_P1;HPM_P2
2022/05/13 00:02:43;;;;;;;10.00;5.53;;;;;;;;;;10488695;28;20023;-68
2022/05/13 00:07:44;;;;;;;9.30;5.75;;;;;;;;;;10490366;28;20043;-71
2022/05/13 00:12:44;;;;;;;5.97;5.18;;;;;;;;;;10488919;28;20483;-73
2022/05/13 00:17:45;;;;;;;9.95;5.25;;;;;;;;;;10488743;28;20529;-69
2022/05/13 00:22:46;;;;;;;9.60;6.32;;;;;;;;;;10489019;28;20496;-72
2022/05/13 00:27:47;;;;;;;10.48;6.32;;;;;;;;;;10471858;28;20017;-74
2022/05/13 00:32:49;;;;;;;14.50;6.43;;;;;;;;;;10488457;28;20474;-76
2022/05/13 00:37:49;;;;;;;9.52;6.75;;;;;;;;;;10471751;28;20059;-71
2022/05/13 00:42:50;;;;;;;9.70;6.88;;;;;;;;;;10489715;28;20485;-70
2022/05/13 00:47:51;;;;;;;9.85;6.57;;;;;;;;;;10454274;28;20025;-72
2022/05/13 00:52:52;;;;;;;8.40;6.15;;;;;;;;;;10488138;28;20036;-70
2022/05/13 00:57:53;;;;;;;10.52;7.13;;;;;;;;;;10470052;28;20020;-70
2022/05/13 01:02:53;;;;;;;9.95;5.53;;;;;;;;;;10469537;28;20024;-74
2022/05/13 01:07:54;;;;;;;14.27;6.20;;;;;;;;;;10486823;28;20052;-69
2022/05/13 01:12:56;;;;;;;11.10;6.50;;;;;;;;;;10469267;28;20150;-69
2022/05/13 01:18:10;;;;;;;10.50;8.25;;;;;;;;;;10470150;28;20087;-70
2022/05/13 01:23:11;;;;;;;13.00;6.22;;;;;;;;;;10486112;28;20056;-75
2022/05/13 01:28:16;;;;;;;10.40;6.45;;;;;;;;;;10469671;28;20201;-75
2022/05/13 01:33:16;;;;;;;8.23;6.32;;;;;;;;;;10469087;28;20028;-75
2022/05/13 01:38:18;;;;;;;19.53;7.07;;;;;;;;;;10468171;28;20024;-70
2022/05/13 01:43:18;;;;;;;10.63;6.30;;;;;;;;;;10452421;28;20445;-73
2022/05/13 01:48:19;;;;;;;8.88;7.15;;;;;;;;;;10468326;28;20081;-69
2022/05/13 01:53:19;;;;;;;10.18;7.47;;;;;;;;;;10468741;28;20480;-77
2022/05/13 01:58:21;;;;;;;12.43;6.45;;;;;;;;;;10467613;28;20532;-69
2022/05/13 02:08:41;;;;;;;7.53;6.22;;;;;;;;;;10484923;28;20036;-71
2022/05/13 02:13:41;;;;;;;11.25;5.90;;;;;;;;;;10483893;28;20032;-72
2022/05/13 02:18:41;;;;;;;11.85;6.28;;;;;;;;;;10467654;28;20056;-69
2022/05/13 02:23:42;;;;;;;8.30;6.00;;;;;;;;;;10468780;28;20438;-71
2022/05/13 02:28:43;;;;;;;12.07;6.57;;;;;;;;;;10467391;28;20024;-70
2022/05/13 02:33:43;;;;;;;10.18;6.53;;;;;;;;;;10467691;28;20037;-69
2022/05/13 02:38:44;;;;;;;11.50;6.18;;;;;;;;;;10467318;28;20024;-72
2022/05/13 02:43:54;;;;;;;9.67;6.53;;;;;;;;;;10485754;28;20031;-74
2022/05/13 02:48:55;;;;;;;11.02;6.20;;;;;;;;;;10467046;28;20043;-70
2022/05/13 02:53:55;;;;;;;10.93;5.68;;;;;;;;;;10475410;28;20055;-69
2022/05/13 02:58:56;;;;;;;6.97;5.67;;;;;;;;;;10491413;28;20028;-70
2022/05/13 03:03:56;;;;;;;7.55;5.88;;;;;;;;;;10474989;28;20020;-75
2022/05/13 03:08:56;;;;;;;8.23;5.90;;;;;;;;;;10474270;28;20028;-73
2022/05/13 03:13:56;;;;;;;8.03;5.93;;;;;;;;;;10490970;28;20028;-71
2022/05/13 03:18:59;;;;;;;12.30;6.63;;;;;;;;;;10491018;28;20332;-71
2022/05/13 03:23:59;;;;;;;18.02;6.35;;;;;;;;;;10474411;28;20553;-70
2022/05/13 03:28:59;;;;;;;13.80;8.32;;;;;;;;;;10491005;28;20031;-72
2022/05/13 03:34:00;;;;;;;27.52;7.53;;;;;;;;;;10492110;28;20041;-70
2022/05/13 03:39:00;;;;;;;10.13;7.47;;;;;;;;;;10492840;28;20131;-74
2022/05/13 03:44:00;;;;;;;11.80;7.40;;;;;;;;;;10490165;28;20270;-71
2022/05/13 03:49:02;;;;;;;10.27;7.30;;;;;;;;;;10471925;28;20102;-72
2022/05/13 03:54:03;;;;;;;12.75;8.40;;;;;;;;;;10489982;28;20032;-73
2022/05/13 03:59:04;;;;;;;13.70;8.65;;;;;;;;;;10489105;28;20039;-69
2022/05/13 04:04:04;;;;;;;12.88;8.18;;;;;;;;;;10470676;28;20078;-68
2022/05/13 04:09:05;;;;;;;9.18;6.72;;;;;;;;;;10487557;28;20028;-75
2022/05/13 04:19:27;;;;;;;8.50;6.95;;;;;;;;;;10493580;28;20072;-69
2022/05/13 04:24:27;;;;;;;7.60;5.93;;;;;;;;;;10488579;28;20116;-70
2022/05/13 04:29:27;;;;;;;9.68;6.65;;;;;;;;;;10476390;28;20669;-73
2022/05/13 04:34:28;;;;;;;8.35;6.47;;;;;;;;;;10444124;28;20047;-69
2022/05/13 04:39:29;;;;;;;9.02;6.38;;;;;;;;;;10443659;28;20025;-73
2022/05/13 04:44:29;;;;;;;16.27;7.80;;;;;;;;;;10446208;28;20044;-69
2022/05/13 04:49:30;;;;;;;11.95;7.30;;;;;;;;;;10447094;28;20131;-74
2022/05/13 04:54:30;;;;;;;13.45;6.07;;;;;;;;;;10447246;28;20028;-74
2022/05/13 04:59:31;;;;;;;7.78;6.53;;;;;;;;;;10446009;28;20025;-74
2022/05/13 05:04:31;;;;;;;12.10;6.60;;;;;;;;;;10445808;28;20684;-69
2022/05/13 05:09:32;;;;;;;9.98;6.47;;;;;;;;;;10461280;28;20028;-72
2022/05/13 05:14:33;;;;;;;11.03;6.37;;;;;;;;;;10461207;28;20071;-70
2022/05/13 05:19:34;;;;;;;13.25;5.30;;;;;;;;;;10444294;28;20436;-71
2022/05/13 05:24:34;;;;;;;6.75;4.97;;;;;;;;;;10445119;28;20048;-69
2022/05/13 05:29:34;;;;;;;12.77;6.20;;;;;;;;;;10460535;28;20464;-72
2022/05/13 05:34:34;;;;;;;8.80;4.88;;;;;;;;;;10460583;28;20044;-69
2022/05/13 05:39:35;;;;;;;12.33;5.47;;;;;;;;;;10460222;28;20326;-72
2022/05/13 05:44:35;;;;;;;8.10;5.33;;;;;;;;;;10460333;28;20025;-74
2022/05/13 05:49:36;;;;;;;9.13;4.68;;;;;;;;;;10443160;28;20039;-73
2022/05/13 05:59:55;;;;;;;7.18;4.88;;;;;;;;;;10444894;28;20044;-73
2022/05/13 06:04:55;;;;;;;6.35;4.40;;;;;;;;;;10459570;28;20477;-69
2022/05/13 06:09:55;;;;;;;11.15;5.00;;;;;;;;;;10460318;28;20025;-72
2022/05/13 06:14:57;;;;;;;11.95;4.13;;;;;;;;;;10441944;28;20039;-70
2022/05/13 06:19:57;;;;;;;9.80;4.55;;;;;;;;;;10472351;28;20516;-70
2022/05/13 06:24:58;;;;;;;7.72;4.10;;;;;;;;;;10471019;28;20028;-73
2022/05/13 06:29:58;;;;;;;12.50;4.55;;;;;;;;;;10481548;28;20590;-73
2022/05/13 06:34:58;;;;;;;10.55;4.75;;;;;;;;;;10501979;28;20025;-73
2022/05/13 06:39:58;;;;;;;13.47;4.50;;;;;;;;;;10498738;28;20403;-68
2022/05/13 06:44:59;;;;;;;11.65;5.32;;;;;;;;;;10480323;28;20029;-70
2022/05/13 06:50:03;;;;;;;9.10;4.47;;;;;;;;;;10498302;28;20043;-76
2022/05/13 06:55:04;;;;;;;18.15;4.20;;;;;;;;;;10480567;28;20017;-71
2022/05/13 07:00:06;;;;;;;5.78;3.97;;;;;;;;;;10480699;28;20046;-74
2022/05/13 07:05:07;;;;;;;6.82;3.40;;;;;;;;;;10498354;28;20033;-70
2022/05/13 07:10:10;;;;;;;11.32;4.00;;;;;;;;;;10480876;28;20030;-76
2022/05/13 07:15:12;;;;;;;8.80;3.90;;;;;;;;;;10497051;28;20395;-70
2022/05/13 07:20:13;;;;;;;10.40;4.03;;;;;;;;;;10480436;28;20666;-75
2022/05/13 07:25:13;;;;;;;12.07;3.80;;;;;;;;;;10479862;28;20123;-72
2022/05/13 07:30:14;;;;;;;9.07;3.67;;;;;;;;;;10496516;28;20036;-70
2022/05/13 07:35:14;;;;;;;10.13;4.40;;;;;;;;;;10477420;28;20032;-76
2022/05/13 07:45:34;;;;;;;7.30;4.03;;;;;;;;;;10468043;28;20025;-73
2022/05/13 07:50:34;;;;;;;8.50;3.95;;;;;;;;;;10463722;28;20399;-73
2022/05/13 07:55:35;;;;;;;11.20;4.10;;;;;;;;;;10463921;28;20024;-76
2022/05/13 08:00:36;;;;;;;9.37;3.43;;;;;;;;;;10463470;28;20025;-73
2022/05/13 08:05:40;;;;;;;9.90;3.60;;;;;;;;;;10465044;28;20024;-73
2022/05/13 08:10:42;;;;;;;6.85;2.90;;;;;;;;;;10480442;28;20021;-75
2022/05/13 08:15:43;;;;;;;9.13;2.97;;;;;;;;;;10479866;28;20039;-76
2022/05/13 08:20:44;;;;;;;10.48;3.30;;;;;;;;;;10518889;28;20044;-72
2022/05/13 08:25:45;;;;;;;8.85;3.88;;;;;;;;;;10507087;28;20032;-76
2022/05/13 08:30:46;;;;;;;12.68;3.10;;;;;;;;;;10465988;28;20025;-72
2022/05/13 08:35:47;;;;;;;12.23;2.78;;;;;;;;;;10464762;28;20115;-74
2022/05/13 08:40:54;;;;;;;7.13;2.83;;;;;;;;;;10447931;28;20274;-76
2022/05/13 08:45:59;;;;;;;9.07;3.22;;;;;;;;;;10424260;28;20037;-75
2022/05/13 08:50:59;;;;;;;8.70;2.80;;;;;;;;;;10424327;28;20048;-71
2022/05/13 08:56:05;;;;;;;11.68;4.22;;;;;;;;;;10423667;28;20586;-73
2022/05/13 09:01:09;;;;;;;15.05;3.45;;;;;;;;;;10424128;28;20511;-71
2022/05/13 09:06:27;;;;;;;5.20;2.92;;;;;;;;;;10441381;28;20746;-71
2022/05/13 09:11:33;;;;;;;9.93;4.15;;;;;;;;;;10449431;28;20025;-72
2022/05/13 09:16:39;;;;;;;6.35;3.08;;;;;;;;;;10482367;28;20029;-71
2022/05/13 09:21:45;;;;;;;4.20;2.42;;;;;;;;;;10489039;28;20029;-74
2022/05/13 09:26:46;;;;;;;8.73;3.08;;;;;;;;;;10469588;28;20109;-72
2022/05/13 09:32:00;;;;;;;3.60;2.70;;;;;;;;;;10452969;28;20112;-77
2022/05/13 09:37:09;;;;;;;5.63;2.37;;;;;;;;;;10443022;28;20120;-75
2022/05/13 09:42:18;;;;;;;9.73;2.97;;;;;;;;;;10481019;28;20544;-71
2022/05/13 09:47:24;;;;;;;6.15;2.25;;;;;;;;;;10461893;28;20100;-72
2022/05/13 09:52:36;;;;;;;4.50;2.50;;;;;;;;;;10461459;28;20464;-71
2022/05/13 09:57:38;;;;;;;7.72;2.00;;;;;;;;;;10462765;28;20089;-74
2022/05/13 10:02:39;;;;;;;8.65;2.33;;;;;;;;;;10477924;28;20024;-76
2022/05/13 10:07:49;;;;;;;6.18;2.30;;;;;;;;;;10459811;23;20052;-76
2022/05/13 10:18:08;;;;;;;2.88;1.70;;;;;;;;;;10424529;28;20520;-75
2022/05/13 10:23:14;;;;;;;2.00;1.57;;;;;;;;;;10437277;28;20021;-73
2022/05/13 10:28:16;;;;;;;7.32;1.58;;;;;;;;;;10438713;28;20902;-72
2022/05/13 10:33:33;;;;;;;4.63;1.50;;;;;;;;;;10421222;28;20144;-72
2022/05/13 10:38:39;;;;;;;2.53;1.67;;;;;;;;;;10413476;28;20029;-78
2022/05/13 10:43:51;;;;;;;4.32;1.50;;;;;;;;;;10436259;28;20112;-74
2022/05/13 10:48:52;;;;;;;4.43;1.67;;;;;;;;;;10436826;28;20116;-71
2022/05/13 10:54:13;;;;;;;11.70;2.13;;;;;;;;;;10419003;28;20018;-73
2022/05/13 10:59:19;;;;;;;2.58;1.50;;;;;;;;;;10419605;28;20386;-71
2022/05/13 11:04:26;;;;;;;13.68;2.88;;;;;;;;;;10435254;28;20103;-72
2022/05/13 11:09:30;;;;;;;4.13;2.72;;;;;;;;;;10418062;28;20049;-75
2022/05/13 11:14:42;;;;;;;7.43;2.60;;;;;;;;;;10425949;28;20025;-74
2022/05/13 11:20:15;;;;;;;7.13;4.30;;;;;;;;;;10426552;28;20028;-73
2022/05/13 11:31:04;;;;;;;6.45;2.53;;;;;;;;;;10445527;28;20029;-72
2022/05/13 11:36:10;;;;;;;4.32;2.60;;;;;;;;;;10427317;28;20014;-72
2022/05/13 11:41:13;;;;;;;4.53;2.60;;;;;;;;;;10439916;28;20025;-71
2022/05/13 11:46:19;;;;;;;5.82;2.97;;;;;;;;;;10443117;28;20021;-72
2022/05/13 11:51:28;;;;;;;4.93;3.05;;;;;;;;;;10442264;28;20035;-73
2022/05/13 11:56:31;;;;;;;6.63;2.95;;;;;;;;;;10441937;28;20067;-72
2022/05/13 12:01:34;;;;;;;5.15;2.80;;;;;;;;;;10440830;28;20024;-73
2022/05/13 12:06:50;;;;;;;7.90;2.55;;;;;;;;;;10440287;28;20049;-72
2022/05/13 12:11:51;;;;;;;9.50;3.45;;;;;;;;;;10441608;28;20447;-71
2022/05/13 12:17:03;;;;;;;6.07;2.70;;;;;;;;;;10443433;28;20021;-76
2022/05/13 12:22:03;;;;;;;6.25;2.42;;;;;;;;;;10423540;28;20021;-74
2022/05/13 12:27:09;;;;;;;6.15;2.38;;;;;;;;;;10446208;28;20024;-73
2022/05/13 12:32:23;;;;;;;5.20;2.45;;;;;;;;;;10468072;28;20567;-71
2022/05/13 12:37:39;;;;;;;3.90;2.20;;;;;;;;;;10480442;28;20028;-69
2022/05/13 12:42:52;;;;;;;4.07;2.58;;;;;;;;;;10469574;28;20120;-72
2022/05/13 12:47:56;;;;;;;2.55;2.00;;;;;;;;;;10504990;28;20024;-68
2022/05/13 12:52:56;;;;;;;4.00;2.58;;;;;;;;;;10481558;28;20785;-72
2022/05/13 12:58:01;;;;;;;5.13;2.30;;;;;;;;;;10481748;28;20020;-68
2022/05/13 13:03:05;;;;;;;3.20;2.35;;;;;;;;;;10479886;28;20028;-68
2022/05/13 13:08:12;;;;;;;6.90;2.50;;;;;;;;;;10488776;28;20048;-69
2022/05/13 13:13:17;;;;;;;13.37;3.40;;;;;;;;;;10468910;28;20120;-74
2022/05/13 13:18:27;;;;;;;2.55;2.03;;;;;;;;;;10483447;28;20027;-69
2022/05/13 13:23:29;;;;;;;4.75;2.25;;;;;;;;;;10480658;28;20214;-74
2022/05/13 13:28:29;;;;;;;5.60;2.38;;;;;;;;;;10472208;28;20059;-69
2022/05/13 13:33:34;;;;;;;3.73;2.50;;;;;;;;;;10492217;28;20107;-72
2022/05/13 13:38:35;;;;;;;8.85;2.30;;;;;;;;;;10487328;28;20071;-74
2022/05/13 13:43:35;;;;;;;6.82;3.17;;;;;;;;;;10475760;28;20120;-73
2022/05/13 13:48:42;;;;;;;12.60;3.30;;;;;;;;;;10479782;28;20070;-74
2022/05/13 13:53:43;;;;;;;7.32;2.80;;;;;;;;;;10476818;28;20036;-73
2022/05/13 13:58:43;;;;;;;5.32;2.80;;;;;;;;;;10506632;28;20166;-68
2022/05/13 14:03:44;;;;;;;3.47;2.83;;;;;;;;;;10486423;28;20099;-74
2022/05/13 14:08:48;;;;;;;3.75;2.47;;;;;;;;;;10478178;28;20409;-70
2022/05/13 14:13:50;;;;;;;5.75;3.20;;;;;;;;;;10483128;28;20553;-70
2022/05/13 14:18:55;;;;;;;4.40;2.90;;;;;;;;;;10488343;28;20075;-70
2022/05/13 14:24:01;;;;;;;5.97;2.70;;;;;;;;;;10445640;28;20480;-70
2022/05/13 14:29:01;;;;;;;4.05;3.15;;;;;;;;;;10477858;28;20038;-73
2022/05/13 14:34:09;;;;;;;4.10;3.23;;;;;;;;;;10460660;28;20031;-74
2022/05/13 14:44:38;;;;;;;9.82;2.75;;;;;;;;;;10477065;28;20020;-70
2022/05/13 14:49:44;;;;;;;4.43;2.63;;;;;;;;;;10484184;28;20492;-73
2022/05/13 14:54:45;;;;;;;6.53;2.63;;;;;;;;;;10498789;28;20824;-74
2022/05/13 14:59:53;;;;;;;5.03;2.90;;;;;;;;;;10467405;28;20028;-73
2022/05/13 15:04:55;;;;;;;10.35;2.60;;;;;;;;;;10468625;28;20151;-70
2022/05/13 15:09:55;;;;;;;3.03;2.35;;;;;;;;;;10465342;28;20060;-74
2022/05/13 15:14:56;;;;;;;5.55;2.58;;;;;;;;;;10498428;28;20230;-72
2022/05/13 15:19:57;;;;;;;7.47;3.05;;;;;;;;;;10484026;28;20139;-74
2022/05/13 15:24:57;;;;;;;4.55;3.17;;;;;;;;;;10485138;28;20020;-67
2022/05/13 15:29:58;;;;;;;2.95;2.65;;;;;;;;;;10485987;28;20028;-72
2022/05/13 15:34:59;;;;;;;5.10;2.88;;;;;;;;;;10486473;28;20418;-73
2022/05/13 15:40:00;;;;;;;6.30;3.33;;;;;;;;;;10499560;28;20021;-70
2022/05/13 15:45:02;;;;;;;4.43;2.70;;;;;;;;;;10468446;28;20441;-73
2022/05/13 15:55:23;;;;;;;3.20;2.08;;;;;;;;;;10485166;28;20017;-70
2022/05/13 16:00:25;;;;;;;3.60;2.50;;;;;;;;;;10465522;28;20031;-70
2022/05/13 16:05:30;;;;;;;6.10;2.80;;;;;;;;;;10444601;28;20937;-70
2022/05/13 16:10:31;;;;;;;5.38;2.42;;;;;;;;;;10425144;28;20409;-73
2022/05/13 16:15:33;;;;;;;3.63;2.60;;;;;;;;;;10424096;28;20021;-76
2022/05/13 16:20:34;;;;;;;9.75;3.13;;;;;;;;;;10441178;28;20121;-73
2022/05/13 16:25:34;;;;;;;5.30;3.10;;;;;;;;;;10442680;28;20047;-72
2022/05/13 16:30:34;;;;;;;5.03;3.50;;;;;;;;;;10442213;28;20017;-74
2022/05/13 16:35:35;;;;;;;6.38;3.45;;;;;;;;;;10424612;28;20016;-67
2022/05/13 16:40:36;;;;;;;4.63;3.38;;;;;;;;;;10433358;28;20021;-74
2022/05/13 16:45:36;;;;;;;7.53;4.30;;;;;;;;;;10442077;28;20100;-73
2022/05/13 16:50:38;;;;;;;8.40;4.07;;;;;;;;;;10440012;28;20020;-73
2022/05/13 16:55:41;;;;;;;8.90;4.00;;;;;;;;;;10424550;28;20268;-73
2022/05/13 17:00:42;;;;;;;15.00;4.57;;;;;;;;;;10438462;28;20025;-73
2022/05/13 17:05:43;;;;;;;6.55;3.85;;;;;;;;;;10440659;28;20061;-68
2022/05/13 17:21:21;;;;;;;8.35;3.42;;;;;;;;;;10440182;28;20052;-73
2022/05/13 17:26:22;;;;;;;5.22;3.42;;;;;;;;;;10422593;28;20564;-73
2022/05/13 17:31:22;;;;;;;6.63;4.30;;;;;;;;;;10439607;28;20493;-70
2022/05/13 17:36:24;;;;;;;7.53;3.17;;;;;;;;;;10421728;28;20021;-71
2022/05/13 17:41:25;;;;;;;8.60;4.18;;;;;;;;;;10438395;28;20036;-67
2022/05/13 17:46:26;;;;;;;6.10;3.08;;;;;;;;;;10422373;28;20036;-73
2022/05/13 17:51:26;;;;;;;6.57;3.70;;;;;;;;;;10421600;28;20021;-71
2022/05/13 17:56:26;;;;;;;5.70;3.43;;;;;;;;;;10420805;28;20025;-75
2022/05/13 18:01:27;;;;;;;8.05;3.85;;;;;;;;;;10447502;28;20028;-74
2022/05/13 18:06:27;;;;;;;9.35;3.92;;;;;;;;;;10456357;28;20132;-74
2022/05/13 18:11:27;;;;;;;7.67;3.27;;;;;;;;;;10454779;28;20036;-75
2022/05/13 18:16:27;;;;;;;7.57;4.75;;;;;;;;;;10436798;28;20027;-71
2022/05/13 18:21:28;;;;;;;7.95;4.40;;;;;;;;;;10457544;28;20099;-70
2022/05/13 18:26:28;;;;;;;7.20;4.30;;;;;;;;;;10436797;28;20339;-69
2022/05/13 18:31:28;;;;;;;6.60;4.90;;;;;;;;;;10446736;28;20020;-70
2022/05/13 18:36:29;;;;;;;11.23;4.05;;;;;;;;;;10435881;28;20033;-73
2022/05/13 18:46:48;;;;;;;6.75;4.88;;;;;;;;;;10451708;28;20041;-72
2022/05/13 18:51:49;;;;;;;12.43;4.87;;;;;;;;;;10450681;28;20028;-75
2022/05/13 18:56:49;;;;;;;5.28;3.90;;;;;;;;;;10440928;28;20036;-72
2022/05/13 19:01:49;;;;;;;11.95;4.20;;;;;;;;;;10431817;28;20032;-74
2022/05/13 19:06:50;;;;;;;9.25;3.53;;;;;;;;;;10446108;28;20061;-75
2022/05/13 19:11:50;;;;;;;7.43;4.40;;;;;;;;;;10443659;28;20029;-71
2022/05/13 19:16:50;;;;;;;6.93;4.13;;;;;;;;;;10443909;28;20021;-70
2022/05/13 19:21:51;;;;;;;7.32;4.32;;;;;;;;;;10438978;28;20041;-75
2022/05/13 19:26:51;;;;;;;7.37;4.73;;;;;;;;;;10450095;28;20447;-70
2022/05/13 19:31:51;;;;;;;7.97;4.32;;;;;;;;;;10449660;28;20492;-75
2022/05/13 19:36:51;;;;;;;5.75;3.83;;;;;;;;;;10450152;28;20025;-72
2022/05/13 19:41:52;;;;;;;6.97;4.37;;;;;;;;;;10465399;28;20509;-74
2022/05/13 19:46:52;;;;;;;10.18;4.50;;;;;;;;;;10442899;28;20028;-73
2022/05/13 19:51:52;;;;;;;11.27;4.53;;;;;;;;;;10450324;28;20032;-76
2022/05/13 19:56:53;;;;;;;5.18;3.97;;;;;;;;;;10445274;28;20025;-75
2022/05/13 20:01:53;;;;;;;6.27;4.50;;;;;;;;;;10453421;28;20804;-76
2022/05/13 20:12:12;;;;;;;8.77;4.97;;;;;;;;;;10453112;28;20515;-62
2022/05/13 20:17:13;;;;;;;8.50;4.60;;;;;;;;;;10454088;28;20024;-75
2022/05/13 20:27:32;;;;;;;9.30;4.68;;;;;;;;;;10447759;28;20017;-74
2022/05/13 20:32:32;;;;;;;9.35;4.85;;;;;;;;;;10449610;28;20032;-73
2022/05/13 20:37:33;;;;;;;6.05;3.88;;;;;;;;;;10434307;28;20073;-70
2022/05/13 20:42:34;;;;;;;12.25;4.43;;;;;;;;;;10443040;28;20042;-70
2022/05/13 20:47:34;;;;;;;6.82;4.55;;;;;;;;;;10434183;28;20044;-71
2022/05/13 20:52:35;;;;;;;7.22;5.38;;;;;;;;;;10452611;28;20053;-70
2022/05/13 20:57:36;;;;;;;6.00;4.47;;;;;;;;;;10451328;28;20024;-73
2022/05/13 21:02:37;;;;;;;13.20;5.20;;;;;;;;;;10457603;28;20139;-71
2022/05/13 21:07:39;;;;;;;5.93;4.75;;;;;;;;;;10438134;28;20048;-74
2022/05/13 21:12:40;;;;;;;6.70;4.65;;;;;;;;;;10426997;28;20040;-74
2022/05/13 21:17:41;;;;;;;9.85;4.93;;;;;;;;;;10430052;28;20394;-70
2022/05/13 21:22:42;;;;;;;6.57;4.13;;;;;;;;;;10435494;28;20033;-74
2022/05/13 21:27:42;;;;;;;5.15;4.30;;;;;;;;;;10461347;28;20073;-69
2022/05/13 21:38:02;;;;;;;5.13;4.50;;;;;;;;;;10461892;28;20480;-74
2022/05/13 21:43:03;;;;;;;6.78;5.60;;;;;;;;;;10443269;28;20033;-74
2022/05/13 21:48:04;;;;;;;7.55;4.85;;;;;;;;;;10447953;28;20032;-69
2022/05/13 21:53:04;;;;;;;7.05;4.63;;;;;;;;;;10440145;28;20032;-70
2022/05/13 21:58:06;;;;;;;7.03;4.75;;;;;;;;;;10457009;28;20358;-72
2022/05/13 22:03:07;;;;;;;8.55;4.88;;;;;;;;;;10441887;28;20540;-75
2022/05/13 22:08:08;;;;;;;5.25;4.75;;;;;;;;;;10460664;28;20180;-72
2022/05/13 22:13:09;;;;;;;8.75;5.40;;;;;;;;;;10482091;28;20110;-73
2022/05/13 22:18:12;;;;;;;6.65;5.05;;;;;;;;;;10484671;28;20453;-70
2022/05/13 22:23:12;;;;;;;6.70;4.65;;;;;;;;;;10493129;28;20032;-75
2022/05/13 22:28:12;;;;;;;7.20;4.57;;;;;;;;;;10514750;28;20040;-69
2022/05/13 22:33:13;;;;;;;9.60;4.90;;;;;;;;;;10514968;28;20107;-74
2022/05/13 22:38:13;;;;;;;5.80;5.03;;;;;;;;;;10518950;28;20051;-73
2022/05/13 22:43:14;;;;;;;7.45;4.75;;;;;;;;;;10483180;28;20019;-73
2022/05/13 22:48:15;;;;;;;7.53;4.65;;;;;;;;;;10489079;28;20063;-73
2022/05/13 22:53:16;;;;;;;8.18;5.03;;;;;;;;;;10488815;28;20029;-72
2022/05/13 22:58:16;;;;;;;7.40;5.53;;;;;;;;;;10494324;28;20392;-70
2022/05/13 23:03:17;;;;;;;10.10;5.80;;;;;;;;;;10507526;28;20523;-73
2022/05/13 23:13:36;;;;;;;10.52;6.20;;;;;;;;;;10506431;28;20039;-71
2022/05/13 23:18:36;;;;;;;7.68;5.90;;;;;;;;;;10489193;28;20499;-71
2022/05/13 23:23:37;;;;;;;7.13;5.65;;;;;;;;;;10510347;28;20035;-72
2022/05/13 23:28:37;;;;;;;14.97;6.70;;;;;;;;;;10489142;28;20024;-74
2022/05/13 23:33:37;;;;;;;10.32;6.45;;;;;;;;;;10523675;28;20154;-73
2022/05/13 23:38:39;;;;;;;11.60;6.93;;;;;;;;;;10520579;28;20024;-74
2022/05/13 23:43:39;;;;;;;10.57;7.97;;;;;;;;;;10509178;28;20329;-73
2022/05/13 23:48:40;;;;;;;11.20;7.60;;;;;;;;;;10487762;28;20076;-74
2022/05/13 23:58:59;;;;;;;;;;;;;;;;;;10505243;28;20028;-75
